sensor_id;sensor_type;location;lat;lon;timestamp;P1;durP1;ratioP1;P2;durP2;ratioP2
22814;SDS011;11574;51.058;13.712;2022-12-20T00:03:23;45.53;;;19.50;;
22814;SDS011;11574;51.058;13.712;2022-12-20T00:08:25;48.63;;;22.20;;
22814;SDS011;11574;51.058;13.712;2022-12-20T00:13:27;51.53;;;21.27;;
22814;SDS011;11574;51.058;13.712;2022-12-20T00:18:31;50.83;;;21.80;;
22814;SDS011;11574;51.058;13.712;2022-12-20T00:23:33;50.30;;;22.27;;
22814;SDS011;11574;51.058;13.712;2022-12-20T00:28:35;50.47;;;22.50;;
22814;SDS011;11574;51.058;13.712;2022-12-20T00:33:39;50.23;;;21.67;;
22814;SDS011;11574;51.058;13.712;2022-12-20T00:38:43;57.07;;;22.73;;
22814;SDS011;11574;51.058;13.712;2022-12-20T00:43:45;50.80;;;22.80;;
22814;SDS011;11574;51.058;13.712;2022-12-20T00:48:50;56.10;;;22.73;;
22814;SDS011;11574;51.058;13.712;2022-12-20T00:53:52;52.57;;;22.50;;
22814;SDS011;11574;51.058;13.712;2022-12-20T00:58:56;50.30;;;22.50;;
22814;SDS011;11574;51.058;13.712;2022-12-20T01:04:00;49.40;;;21.97;;
22814;SDS011;11574;51.058;13.712;2022-12-20T01:09:02;50.17;;;20.93;;
22814;SDS011;11574;51.058;13.712;2022-12-20T01:14:05;45.90;;;19.93;;
22814;SDS011;11574;51.058;13.712;2022-12-20T01:19:10;44.43;;;20.03;;
22814;SDS011;11574;51.058;13.712;2022-12-20T01:24:13;45.60;;;21.17;;
22814;SDS011;11574;51.058;13.712;2022-12-20T01:29:16;45.27;;;20.63;;
22814;SDS011;11574;51.058;13.712;2022-12-20T01:34:19;51.43;;;23.10;;
22814;SDS011;11574;51.058;13.712;2022-12-20T01:39:23;43.77;;;19.90;;
22814;SDS011;11574;51.058;13.712;2022-12-20T01:49:48;51.87;;;22.77;;
22814;SDS011;11574;51.058;13.712;2022-12-20T01:54:53;49.27;;;23.77;;
22814;SDS011;11574;51.058;13.712;2022-12-20T01:59:57;46.57;;;21.93;;
22814;SDS011;11574;51.058;13.712;2022-12-20T02:05:01;49.33;;;21.57;;
22814;SDS011;11574;51.058;13.712;2022-12-20T02:10:03;51.07;;;22.77;;
22814;SDS011;11574;51.058;13.712;2022-12-20T02:15:14;54.03;;;21.83;;
22814;SDS011;11574;51.058;13.712;2022-12-20T02:20:29;53.70;;;23.43;;
22814;SDS011;11574;51.058;13.712;2022-12-20T02:25:37;50.13;;;22.00;;
22814;SDS011;11574;51.058;13.712;2022-12-20T02:30:44;53.60;;;21.70;;
22814;SDS011;11574;51.058;13.712;2022-12-20T02:35:47;54.03;;;22.67;;
22814;SDS011;11574;51.058;13.712;2022-12-20T02:40:49;49.67;;;21.87;;
22814;SDS011;11574;51.058;13.712;2022-12-20T02:45:55;51.13;;;22.20;;
22814;SDS011;11574;51.058;13.712;2022-12-20T02:50:59;49.73;;;20.37;;
22814;SDS011;11574;51.058;13.712;2022-12-20T02:56:03;49.97;;;21.83;;
22814;SDS011;11574;51.058;13.712;2022-12-20T03:01:07;44.13;;;21.10;;
22814;SDS011;11574;51.058;13.712;2022-12-20T03:06:11;43.70;;;20.10;;
22814;SDS011;11574;51.058;13.712;2022-12-20T03:11:14;48.07;;;18.90;;
22814;SDS011;11574;51.058;13.712;2022-12-20T03:16:17;51.90;;;21.60;;
22814;SDS011;11574;51.058;13.712;2022-12-20T03:21:19;49.80;;;21.50;;
22814;SDS011;11574;51.058;13.712;2022-12-20T03:26:21;46.60;;;21.30;;
22814;SDS011;11574;51.058;13.712;2022-12-20T03:31:25;50.50;;;21.13;;
22814;SDS011;11574;51.058;13.712;2022-12-20T03:36:27;53.00;;;22.77;;
22814;SDS011;11574;51.058;13.712;2022-12-20T03:41:29;49.90;;;21.37;;
22814;SDS011;11574;51.058;13.712;2022-12-20T03:46:33;47.67;;;22.20;;
22814;SDS011;11574;51.058;13.712;2022-12-20T03:51:35;55.03;;;21.67;;
22814;SDS011;11574;51.058;13.712;2022-12-20T03:56:38;50.67;;;21.57;;
22814;SDS011;11574;51.058;13.712;2022-12-20T04:01:41;50.37;;;22.10;;
22814;SDS011;11574;51.058;13.712;2022-12-20T04:06:43;43.80;;;20.90;;
22814;SDS011;11574;51.058;13.712;2022-12-20T04:11:46;45.90;;;20.97;;
22814;SDS011;11574;51.058;13.712;2022-12-20T04:16:49;50.90;;;20.60;;
22814;SDS011;11574;51.058;13.712;2022-12-20T04:21:51;49.00;;;21.73;;
22814;SDS011;11574;51.058;13.712;2022-12-20T04:26:55;48.67;;;21.60;;
22814;SDS011;11574;51.058;13.712;2022-12-20T04:31:58;47.87;;;21.67;;
22814;SDS011;11574;51.058;13.712;2022-12-20T04:37:01;46.47;;;21.07;;
22814;SDS011;11574;51.058;13.712;2022-12-20T04:42:04;49.97;;;21.70;;
22814;SDS011;11574;51.058;13.712;2022-12-20T04:47:09;45.23;;;21.60;;
22814;SDS011;11574;51.058;13.712;2022-12-20T04:52:11;45.70;;;20.30;;
22814;SDS011;11574;51.058;13.712;2022-12-20T04:57:31;46.80;;;21.20;;
22814;SDS011;11574;51.058;13.712;2022-12-20T05:02:35;42.57;;;20.33;;
22814;SDS011;11574;51.058;13.712;2022-12-20T05:07:37;44.57;;;19.50;;
22814;SDS011;11574;51.058;13.712;2022-12-20T05:12:39;53.80;;;22.40;;
22814;SDS011;11574;51.058;13.712;2022-12-20T05:17:43;47.40;;;20.90;;
22814;SDS011;11574;51.058;13.712;2022-12-20T05:22:45;51.17;;;21.53;;
22814;SDS011;11574;51.058;13.712;2022-12-20T05:28:05;49.50;;;21.70;;
22814;SDS011;11574;51.058;13.712;2022-12-20T05:33:08;41.37;;;18.87;;
22814;SDS011;11574;51.058;13.712;2022-12-20T05:38:11;45.07;;;20.13;;
22814;SDS011;11574;51.058;13.712;2022-12-20T05:43:13;41.20;;;19.67;;
22814;SDS011;11574;51.058;13.712;2022-12-20T05:48:17;37.67;;;18.83;;
22814;SDS011;11574;51.058;13.712;2022-12-20T05:53:20;46.40;;;19.63;;
22814;SDS011;11574;51.058;13.712;2022-12-20T05:58:23;46.20;;;20.57;;
22814;SDS011;11574;51.058;13.712;2022-12-20T06:03:26;44.03;;;19.43;;
22814;SDS011;11574;51.058;13.712;2022-12-20T06:08:29;39.73;;;17.83;;
22814;SDS011;11574;51.058;13.712;2022-12-20T06:13:32;42.00;;;19.53;;
22814;SDS011;11574;51.058;13.712;2022-12-20T06:18:35;43.97;;;19.63;;
22814;SDS011;11574;51.058;13.712;2022-12-20T06:23:38;41.57;;;19.53;;
22814;SDS011;11574;51.058;13.712;2022-12-20T06:28:40;40.20;;;18.73;;
22814;SDS011;11574;51.058;13.712;2022-12-20T06:33:43;37.60;;;17.17;;
22814;SDS011;11574;51.058;13.712;2022-12-20T06:38:46;46.47;;;19.40;;
22814;SDS011;11574;51.058;13.712;2022-12-20T06:43:48;38.47;;;18.17;;
22814;SDS011;11574;51.058;13.712;2022-12-20T06:48:51;40.00;;;19.23;;
22814;SDS011;11574;51.058;13.712;2022-12-20T06:53:53;42.07;;;19.73;;
22814;SDS011;11574;51.058;13.712;2022-12-20T06:58:56;38.23;;;18.17;;
22814;SDS011;11574;51.058;13.712;2022-12-20T07:03:59;41.23;;;18.80;;
22814;SDS011;11574;51.058;13.712;2022-12-20T07:09:01;39.20;;;18.93;;
22814;SDS011;11574;51.058;13.712;2022-12-20T07:14:03;40.53;;;18.47;;
22814;SDS011;11574;51.058;13.712;2022-12-20T07:19:08;38.50;;;18.60;;
22814;SDS011;11574;51.058;13.712;2022-12-20T07:24:11;41.87;;;18.93;;
22814;SDS011;11574;51.058;13.712;2022-12-20T07:29:13;43.60;;;19.50;;
22814;SDS011;11574;51.058;13.712;2022-12-20T07:34:17;46.87;;;20.63;;
22814;SDS011;11574;51.058;13.712;2022-12-20T07:39:19;39.77;;;19.03;;
22814;SDS011;11574;51.058;13.712;2022-12-20T07:44:22;47.13;;;20.00;;
22814;SDS011;11574;51.058;13.712;2022-12-20T07:49:25;37.67;;;18.33;;
22814;SDS011;11574;51.058;13.712;2022-12-20T07:54:29;42.37;;;19.70;;
22814;SDS011;11574;51.058;13.712;2022-12-20T07:59:33;43.10;;;19.90;;
22814;SDS011;11574;51.058;13.712;2022-12-20T08:04:38;43.20;;;19.20;;
22814;SDS011;11574;51.058;13.712;2022-12-20T08:09:40;43.67;;;19.73;;
22814;SDS011;11574;51.058;13.712;2022-12-20T08:14:44;41.63;;;18.60;;
22814;SDS011;11574;51.058;13.712;2022-12-20T08:19:47;45.17;;;20.63;;
22814;SDS011;11574;51.058;13.712;2022-12-20T08:24:51;47.10;;;20.17;;
22814;SDS011;11574;51.058;13.712;2022-12-20T08:29:53;48.13;;;20.23;;
22814;SDS011;11574;51.058;13.712;2022-12-20T08:34:56;46.43;;;21.03;;
22814;SDS011;11574;51.058;13.712;2022-12-20T08:39:58;45.03;;;20.13;;
22814;SDS011;11574;51.058;13.712;2022-12-20T08:45:00;44.60;;;21.27;;
22814;SDS011;11574;51.058;13.712;2022-12-20T08:50:05;49.33;;;21.10;;
22814;SDS011;11574;51.058;13.712;2022-12-20T08:55:08;51.67;;;21.20;;
22814;SDS011;11574;51.058;13.712;2022-12-20T09:00:11;43.83;;;19.90;;
22814;SDS011;11574;51.058;13.712;2022-12-20T09:05:15;42.23;;;19.83;;
22814;SDS011;11574;51.058;13.712;2022-12-20T09:10:17;44.80;;;20.17;;
22814;SDS011;11574;51.058;13.712;2022-12-20T09:15:19;39.40;;;17.77;;
22814;SDS011;11574;51.058;13.712;2022-12-20T09:20:23;43.20;;;20.20;;
22814;SDS011;11574;51.058;13.712;2022-12-20T09:25:25;47.20;;;21.67;;
22814;SDS011;11574;51.058;13.712;2022-12-20T09:30:28;43.90;;;20.43;;
22814;SDS011;11574;51.058;13.712;2022-12-20T09:35:31;44.07;;;20.83;;
22814;SDS011;11574;51.058;13.712;2022-12-20T09:40:33;42.63;;;20.10;;
22814;SDS011;11574;51.058;13.712;2022-12-20T09:45:37;43.37;;;20.23;;
22814;SDS011;11574;51.058;13.712;2022-12-20T09:50:42;43.23;;;20.70;;
22814;SDS011;11574;51.058;13.712;2022-12-20T09:55:49;43.50;;;21.47;;
22814;SDS011;11574;51.058;13.712;2022-12-20T10:00:54;44.70;;;21.40;;
22814;SDS011;11574;51.058;13.712;2022-12-20T10:05:58;43.67;;;21.70;;
22814;SDS011;11574;51.058;13.712;2022-12-20T10:11:02;49.03;;;21.87;;
22814;SDS011;11574;51.058;13.712;2022-12-20T10:16:10;48.20;;;21.80;;
22814;SDS011;11574;51.058;13.712;2022-12-20T10:21:17;47.83;;;20.73;;
22814;SDS011;11574;51.058;13.712;2022-12-20T10:26:22;53.13;;;22.80;;
22814;SDS011;11574;51.058;13.712;2022-12-20T10:31:25;50.53;;;21.80;;
22814;SDS011;11574;51.058;13.712;2022-12-20T10:36:30;47.13;;;22.67;;
22814;SDS011;11574;51.058;13.712;2022-12-20T10:41:33;48.80;;;21.17;;
22814;SDS011;11574;51.058;13.712;2022-12-20T10:46:49;44.80;;;20.50;;
22814;SDS011;11574;51.058;13.712;2022-12-20T10:51:54;49.90;;;21.53;;
22814;SDS011;11574;51.058;13.712;2022-12-20T10:56:57;48.50;;;21.30;;
22814;SDS011;11574;51.058;13.712;2022-12-20T11:02:01;53.60;;;21.33;;
22814;SDS011;11574;51.058;13.712;2022-12-20T11:07:20;53.73;;;21.07;;
22814;SDS011;11574;51.058;13.712;2022-12-20T11:12:23;44.00;;;20.53;;
22814;SDS011;11574;51.058;13.712;2022-12-20T11:17:27;43.87;;;20.90;;
22814;SDS011;11574;51.058;13.712;2022-12-20T11:22:37;48.23;;;22.00;;
22814;SDS011;11574;51.058;13.712;2022-12-20T11:27:48;48.17;;;20.17;;
22814;SDS011;11574;51.058;13.712;2022-12-20T11:32:58;47.57;;;20.80;;
22814;SDS011;11574;51.058;13.712;2022-12-20T11:38:06;43.60;;;20.23;;
22814;SDS011;11574;51.058;13.712;2022-12-20T11:43:15;43.20;;;19.77;;
22814;SDS011;11574;51.058;13.712;2022-12-20T11:48:25;47.70;;;20.43;;
22814;SDS011;11574;51.058;13.712;2022-12-20T11:53:33;42.50;;;19.57;;
22814;SDS011;11574;51.058;13.712;2022-12-20T11:58:41;51.20;;;22.17;;
22814;SDS011;11574;51.058;13.712;2022-12-20T12:03:49;49.47;;;22.90;;
22814;SDS011;11574;51.058;13.712;2022-12-20T12:09:02;45.50;;;20.83;;
22814;SDS011;11574;51.058;13.712;2022-12-20T12:14:08;52.00;;;22.93;;
22814;SDS011;11574;51.058;13.712;2022-12-20T12:19:16;46.90;;;21.37;;
22814;SDS011;11574;51.058;13.712;2022-12-20T12:24:20;42.80;;;19.90;;
22814;SDS011;11574;51.058;13.712;2022-12-20T12:29:24;44.10;;;20.87;;
22814;SDS011;11574;51.058;13.712;2022-12-20T12:34:29;49.43;;;22.07;;
22814;SDS011;11574;51.058;13.712;2022-12-20T12:39:41;45.87;;;21.37;;
22814;SDS011;11574;51.058;13.712;2022-12-20T12:44:48;50.83;;;22.60;;
22814;SDS011;11574;51.058;13.712;2022-12-20T12:49:52;50.30;;;22.80;;
22814;SDS011;11574;51.058;13.712;2022-12-20T12:54:57;50.87;;;22.13;;
22814;SDS011;11574;51.058;13.712;2022-12-20T12:59:59;52.20;;;22.43;;
22814;SDS011;11574;51.058;13.712;2022-12-20T13:15:48;53.20;;;23.03;;
22814;SDS011;11574;51.058;13.712;2022-12-20T13:31:30;50.13;;;23.10;;
22814;SDS011;11574;51.058;13.712;2022-12-20T13:36:34;53.13;;;22.27;;
22814;SDS011;11574;51.058;13.712;2022-12-20T13:41:39;54.80;;;22.73;;
22814;SDS011;11574;51.058;13.712;2022-12-20T13:46:45;53.50;;;23.30;;
22814;SDS011;11574;51.058;13.712;2022-12-20T13:51:47;46.90;;;22.43;;
22814;SDS011;11574;51.058;13.712;2022-12-20T13:56:50;58.97;;;24.37;;
22814;SDS011;11574;51.058;13.712;2022-12-20T14:01:55;51.20;;;22.67;;
22814;SDS011;11574;51.058;13.712;2022-12-20T14:06:58;51.43;;;22.60;;
22814;SDS011;11574;51.058;13.712;2022-12-20T14:12:02;50.27;;;22.37;;
22814;SDS011;11574;51.058;13.712;2022-12-20T14:17:19;48.80;;;23.13;;
22814;SDS011;11574;51.058;13.712;2022-12-20T14:22:25;53.90;;;24.53;;
22814;SDS011;11574;51.058;13.712;2022-12-20T14:27:27;51.97;;;22.53;;
22814;SDS011;11574;51.058;13.712;2022-12-20T14:32:32;56.83;;;23.40;;
22814;SDS011;11574;51.058;13.712;2022-12-20T14:37:35;59.53;;;23.93;;
22814;SDS011;11574;51.058;13.712;2022-12-20T14:42:40;45.30;;;20.73;;
22814;SDS011;11574;51.058;13.712;2022-12-20T14:47:48;49.97;;;22.53;;
22814;SDS011;11574;51.058;13.712;2022-12-20T14:52:52;63.73;;;24.37;;
22814;SDS011;11574;51.058;13.712;2022-12-20T14:57:55;52.87;;;21.77;;
22814;SDS011;11574;51.058;13.712;2022-12-20T15:03:00;52.17;;;22.17;;
22814;SDS011;11574;51.058;13.712;2022-12-20T15:08:09;56.00;;;22.70;;
22814;SDS011;11574;51.058;13.712;2022-12-20T15:13:12;53.43;;;21.90;;
22814;SDS011;11574;51.058;13.712;2022-12-20T15:18:17;51.80;;;22.57;;
22814;SDS011;11574;51.058;13.712;2022-12-20T15:23:20;58.07;;;24.00;;
22814;SDS011;11574;51.058;13.712;2022-12-20T15:28:24;56.37;;;23.30;;
22814;SDS011;11574;51.058;13.712;2022-12-20T15:33:29;61.50;;;23.70;;
22814;SDS011;11574;51.058;13.712;2022-12-20T15:38:32;54.07;;;25.03;;
22814;SDS011;11574;51.058;13.712;2022-12-20T15:43:36;57.83;;;22.47;;
22814;SDS011;11574;51.058;13.712;2022-12-20T15:48:40;54.27;;;23.00;;
22814;SDS011;11574;51.058;13.712;2022-12-20T15:53:42;48.43;;;22.20;;
22814;SDS011;11574;51.058;13.712;2022-12-20T15:58:45;54.57;;;23.67;;
22814;SDS011;11574;51.058;13.712;2022-12-20T16:03:48;49.23;;;22.00;;
22814;SDS011;11574;51.058;13.712;2022-12-20T16:08:50;58.77;;;22.93;;
22814;SDS011;11574;51.058;13.712;2022-12-20T16:13:53;58.53;;;24.77;;
22814;SDS011;11574;51.058;13.712;2022-12-20T16:18:57;47.67;;;21.43;;
22814;SDS011;11574;51.058;13.712;2022-12-20T16:24:00;55.33;;;23.17;;
22814;SDS011;11574;51.058;13.712;2022-12-20T16:29:02;52.57;;;22.90;;
22814;SDS011;11574;51.058;13.712;2022-12-20T16:34:08;59.80;;;22.70;;
22814;SDS011;11574;51.058;13.712;2022-12-20T16:39:12;52.13;;;23.17;;
22814;SDS011;11574;51.058;13.712;2022-12-20T16:44:15;50.37;;;22.47;;
22814;SDS011;11574;51.058;13.712;2022-12-20T16:49:19;49.80;;;23.33;;
22814;SDS011;11574;51.058;13.712;2022-12-20T16:54:21;57.30;;;23.00;;
22814;SDS011;11574;51.058;13.712;2022-12-20T16:59:24;56.23;;;23.87;;
22814;SDS011;11574;51.058;13.712;2022-12-20T17:04:27;50.97;;;23.23;;
22814;SDS011;11574;51.058;13.712;2022-12-20T17:09:29;52.43;;;22.53;;
22814;SDS011;11574;51.058;13.712;2022-12-20T17:14:31;54.33;;;24.40;;
22814;SDS011;11574;51.058;13.712;2022-12-20T17:19:35;57.37;;;24.00;;
22814;SDS011;11574;51.058;13.712;2022-12-20T17:24:37;58.00;;;22.93;;
22814;SDS011;11574;51.058;13.712;2022-12-20T17:29:39;55.03;;;23.80;;
22814;SDS011;11574;51.058;13.712;2022-12-20T17:34:45;53.27;;;22.30;;
22814;SDS011;11574;51.058;13.712;2022-12-20T17:39:47;55.80;;;23.57;;
22814;SDS011;11574;51.058;13.712;2022-12-20T17:44:49;54.77;;;22.43;;
22814;SDS011;11574;51.058;13.712;2022-12-20T17:49:53;58.90;;;23.77;;
22814;SDS011;11574;51.058;13.712;2022-12-20T17:54:55;54.60;;;23.30;;
22814;SDS011;11574;51.058;13.712;2022-12-20T17:59:58;52.10;;;24.27;;
22814;SDS011;11574;51.058;13.712;2022-12-20T18:05:02;56.60;;;23.73;;
22814;SDS011;11574;51.058;13.712;2022-12-20T18:10:04;50.00;;;19.93;;
22814;SDS011;11574;51.058;13.712;2022-12-20T18:15:07;53.77;;;22.00;;
22814;SDS011;11574;51.058;13.712;2022-12-20T18:20:14;55.77;;;23.23;;
22814;SDS011;11574;51.058;13.712;2022-12-20T18:25:16;50.83;;;21.77;;
22814;SDS011;11574;51.058;13.712;2022-12-20T18:30:18;51.50;;;21.97;;
22814;SDS011;11574;51.058;13.712;2022-12-20T18:35:22;50.70;;;21.87;;
22814;SDS011;11574;51.058;13.712;2022-12-20T18:40:24;54.53;;;22.57;;
22814;SDS011;11574;51.058;13.712;2022-12-20T18:45:26;49.13;;;20.20;;
22814;SDS011;11574;51.058;13.712;2022-12-20T18:50:30;52.67;;;22.07;;
22814;SDS011;11574;51.058;13.712;2022-12-20T18:55:34;50.83;;;20.33;;
22814;SDS011;11574;51.058;13.712;2022-12-20T19:00:37;53.63;;;20.47;;
22814;SDS011;11574;51.058;13.712;2022-12-20T19:05:41;54.17;;;23.00;;
22814;SDS011;11574;51.058;13.712;2022-12-20T19:10:43;46.47;;;20.63;;
22814;SDS011;11574;51.058;13.712;2022-12-20T19:15:46;54.10;;;22.17;;
22814;SDS011;11574;51.058;13.712;2022-12-20T19:20:49;46.77;;;20.33;;
22814;SDS011;11574;51.058;13.712;2022-12-20T19:25:52;46.53;;;20.20;;
22814;SDS011;11574;51.058;13.712;2022-12-20T19:30:54;48.50;;;22.40;;
22814;SDS011;11574;51.058;13.712;2022-12-20T19:35:57;49.83;;;20.73;;
22814;SDS011;11574;51.058;13.712;2022-12-20T19:41:01;43.23;;;19.00;;
22814;SDS011;11574;51.058;13.712;2022-12-20T19:46:03;56.63;;;21.87;;
22814;SDS011;11574;51.058;13.712;2022-12-20T19:51:08;49.37;;;22.20;;
22814;SDS011;11574;51.058;13.712;2022-12-20T19:56:11;51.63;;;21.23;;
22814;SDS011;11574;51.058;13.712;2022-12-20T20:01:14;51.00;;;21.57;;
22814;SDS011;11574;51.058;13.712;2022-12-20T20:06:18;48.80;;;20.80;;
22814;SDS011;11574;51.058;13.712;2022-12-20T20:11:20;46.57;;;21.20;;
22814;SDS011;11574;51.058;13.712;2022-12-20T20:16:22;55.23;;;20.80;;
22814;SDS011;11574;51.058;13.712;2022-12-20T20:21:26;46.97;;;20.60;;
22814;SDS011;11574;51.058;13.712;2022-12-20T20:26:29;48.03;;;20.03;;
22814;SDS011;11574;51.058;13.712;2022-12-20T20:31:31;49.57;;;19.57;;
22814;SDS011;11574;51.058;13.712;2022-12-20T20:36:35;45.90;;;20.87;;
22814;SDS011;11574;51.058;13.712;2022-12-20T20:41:37;48.30;;;21.20;;
22814;SDS011;11574;51.058;13.712;2022-12-20T20:46:39;47.17;;;20.67;;
22814;SDS011;11574;51.058;13.712;2022-12-20T20:51:43;50.57;;;20.87;;
22814;SDS011;11574;51.058;13.712;2022-12-20T20:56:45;46.87;;;20.07;;
22814;SDS011;11574;51.058;13.712;2022-12-20T21:01:47;45.10;;;19.50;;
22814;SDS011;11574;51.058;13.712;2022-12-20T21:06:51;48.93;;;20.23;;
22814;SDS011;11574;51.058;13.712;2022-12-20T21:11:53;47.17;;;19.83;;
22814;SDS011;11574;51.058;13.712;2022-12-20T21:16:55;44.77;;;20.00;;
22814;SDS011;11574;51.058;13.712;2022-12-20T21:21:58;49.03;;;20.70;;
22814;SDS011;11574;51.058;13.712;2022-12-20T21:27:01;50.13;;;21.13;;
22814;SDS011;11574;51.058;13.712;2022-12-20T21:32:03;50.67;;;21.07;;
22814;SDS011;11574;51.058;13.712;2022-12-20T21:37:07;50.13;;;21.87;;
22814;SDS011;11574;51.058;13.712;2022-12-20T21:42:09;46.17;;;20.87;;
22814;SDS011;11574;51.058;13.712;2022-12-20T21:47:11;52.47;;;21.00;;
22814;SDS011;11574;51.058;13.712;2022-12-20T21:52:15;45.07;;;20.13;;
22814;SDS011;11574;51.058;13.712;2022-12-20T21:57:17;41.17;;;19.10;;
22814;SDS011;11574;51.058;13.712;2022-12-20T22:02:19;51.03;;;20.10;;
22814;SDS011;11574;51.058;13.712;2022-12-20T22:07:23;51.57;;;21.50;;
22814;SDS011;11574;51.058;13.712;2022-12-20T22:12:25;50.60;;;21.70;;
22814;SDS011;11574;51.058;13.712;2022-12-20T22:17:27;48.17;;;19.97;;
22814;SDS011;11574;51.058;13.712;2022-12-20T22:22:30;44.03;;;20.37;;
22814;SDS011;11574;51.058;13.712;2022-12-20T22:27:33;48.63;;;20.97;;
22814;SDS011;11574;51.058;13.712;2022-12-20T22:32:35;44.17;;;21.47;;
22814;SDS011;11574;51.058;13.712;2022-12-20T22:37:38;49.53;;;21.57;;
22814;SDS011;11574;51.058;13.712;2022-12-20T22:42:41;44.50;;;18.90;;
22814;SDS011;11574;51.058;13.712;2022-12-20T22:47:43;49.13;;;20.33;;
22814;SDS011;11574;51.058;13.712;2022-12-20T22:52:46;43.47;;;18.97;;
22814;SDS011;11574;51.058;13.712;2022-12-20T22:57:48;48.80;;;19.90;;
22814;SDS011;11574;51.058;13.712;2022-12-20T23:02:50;43.23;;;19.07;;
22814;SDS011;11574;51.058;13.712;2022-12-20T23:07:54;47.57;;;19.47;;
22814;SDS011;11574;51.058;13.712;2022-12-20T23:12:56;52.20;;;20.70;;
22814;SDS011;11574;51.058;13.712;2022-12-20T23:18:15;46.57;;;19.87;;
22814;SDS011;11574;51.058;13.712;2022-12-20T23:23:18;48.67;;;19.87;;
22814;SDS011;11574;51.058;13.712;2022-12-20T23:28:21;49.73;;;20.20;;
22814;SDS011;11574;51.058;13.712;2022-12-20T23:33:23;45.23;;;19.87;;
22814;SDS011;11574;51.058;13.712;2022-12-20T23:38:26;45.43;;;19.93;;
22814;SDS011;11574;51.058;13.712;2022-12-20T23:43:31;44.80;;;19.23;;
22814;SDS011;11574;51.058;13.712;2022-12-20T23:48:34;44.27;;;19.27;;
22814;SDS011;11574;51.058;13.712;2022-12-20T23:53:37;45.97;;;18.77;;
22814;SDS011;11574;51.058;13.712;2022-12-20T23:58:40;40.77;;;17.60;;
